sensor_id;sensor_type;location;lat;lon;timestamp;temperature;humidity
72883;DHT22;61017;37.812;-122.286;2022-09-12T00:00:22;25.30;70.60
72883;DHT22;61017;37.812;-122.286;2022-09-12T00:01:54;25.30;70.80
72883;DHT22;61017;37.812;-122.286;2022-09-12T00:03:26;25.30;70.90
72883;DHT22;61017;37.812;-122.286;2022-09-12T00:04:58;25.30;71.00
72883;DHT22;61017;37.812;-122.286;2022-09-12T00:06:33;25.30;71.00
72883;DHT22;61017;37.812;-122.286;2022-09-12T00:08:05;25.30;71.10
72883;DHT22;61017;37.812;-122.286;2022-09-12T00:09:37;25.30;71.10
72883;DHT22;61017;37.812;-122.286;2022-09-12T00:11:11;25.30;71.30
72883;DHT22;61017;37.812;-122.286;2022-09-12T00:12:43;25.30;71.20
72883;DHT22;61017;37.812;-122.286;2022-09-12T00:14:17;25.30;71.30
72883;DHT22;61017;37.812;-122.286;2022-09-12T00:15:49;25.30;71.40
72883;DHT22;61017;37.812;-122.286;2022-09-12T00:17:21;25.40;71.60
72883;DHT22;61017;37.812;-122.286;2022-09-12T00:18:52;25.40;71.70
72883;DHT22;61017;37.812;-122.286;2022-09-12T00:20:24;25.30;71.60
72883;DHT22;61017;37.812;-122.286;2022-09-12T00:21:58;25.40;71.60
72883;DHT22;61017;37.812;-122.286;2022-09-12T00:23:36;25.40;71.60
72883;DHT22;61017;37.812;-122.286;2022-09-12T00:25:08;25.40;71.50
72883;DHT22;61017;37.812;-122.286;2022-09-12T00:26:40;25.30;71.40
72883;DHT22;61017;37.812;-122.286;2022-09-12T00:28:14;25.30;71.30
72883;DHT22;61017;37.812;-122.286;2022-09-12T00:29:46;25.40;71.40
72883;DHT22;61017;37.812;-122.286;2022-09-12T00:31:20;25.40;71.30
72883;DHT22;61017;37.812;-122.286;2022-09-12T00:32:54;25.40;71.20
72883;DHT22;61017;37.812;-122.286;2022-09-12T00:34:26;25.40;71.30
72883;DHT22;61017;37.812;-122.286;2022-09-12T00:35:57;25.40;71.20
72883;DHT22;61017;37.812;-122.286;2022-09-12T00:37:29;25.40;71.20
72883;DHT22;61017;37.812;-122.286;2022-09-12T00:39:02;25.40;71.10
72883;DHT22;61017;37.812;-122.286;2022-09-12T00:40:34;25.40;71.10
72883;DHT22;61017;37.812;-122.286;2022-09-12T00:42:07;25.40;71.40
72883;DHT22;61017;37.812;-122.286;2022-09-12T00:43:42;25.50;72.20
72883;DHT22;61017;37.812;-122.286;2022-09-12T00:45:26;25.50;71.70
72883;DHT22;61017;37.812;-122.286;2022-09-12T00:47:05;25.50;71.90
72883;DHT22;61017;37.812;-122.286;2022-09-12T00:48:51;25.40;71.90
72883;DHT22;61017;37.812;-122.286;2022-09-12T00:50:25;25.40;72.10
72883;DHT22;61017;37.812;-122.286;2022-09-12T00:52:07;25.50;72.30
72883;DHT22;61017;37.812;-122.286;2022-09-12T00:53:40;25.50;72.40
72883;DHT22;61017;37.812;-122.286;2022-09-12T00:55:34;25.50;72.50
72883;DHT22;61017;37.812;-122.286;2022-09-12T00:57:08;25.50;72.70
72883;DHT22;61017;37.812;-122.286;2022-09-12T00:58:55;25.50;73.00
72883;DHT22;61017;37.812;-122.286;2022-09-12T01:00:28;25.50;73.20
72883;DHT22;61017;37.812;-122.286;2022-09-12T01:02:00;25.50;73.30
72883;DHT22;61017;37.812;-122.286;2022-09-12T01:03:32;25.50;73.00
72883;DHT22;61017;37.812;-122.286;2022-09-12T01:05:06;25.50;72.60
72883;DHT22;61017;37.812;-122.286;2022-09-12T01:06:40;25.50;72.40
72883;DHT22;61017;37.812;-122.286;2022-09-12T01:08:13;25.50;71.70
72883;DHT22;61017;37.812;-122.286;2022-09-12T01:09:45;25.50;71.30
72883;DHT22;61017;37.812;-122.286;2022-09-12T01:11:19;25.50;71.10
72883;DHT22;61017;37.812;-122.286;2022-09-12T01:12:51;25.50;71.00
72883;DHT22;61017;37.812;-122.286;2022-09-12T01:14:23;25.50;71.10
72883;DHT22;61017;37.812;-122.286;2022-09-12T01:15:55;25.50;71.10
72883;DHT22;61017;37.812;-122.286;2022-09-12T01:21:24;25.50;71.00
72883;DHT22;61017;37.812;-122.286;2022-09-12T01:23:18;25.50;71.10
72883;DHT22;61017;37.812;-122.286;2022-09-12T01:29:18;25.60;71.30
72883;DHT22;61017;37.812;-122.286;2022-09-12T01:30:52;25.50;70.50
72883;DHT22;61017;37.812;-122.286;2022-09-12T01:38:30;25.60;70.50
72883;DHT22;61017;37.812;-122.286;2022-09-12T01:40:13;25.50;70.40
72883;DHT22;61017;37.812;-122.286;2022-09-12T01:42:13;25.60;70.60
72883;DHT22;61017;37.812;-122.286;2022-09-12T01:43:59;25.60;70.70
72883;DHT22;61017;37.812;-122.286;2022-09-12T01:45:42;25.60;71.00
72883;DHT22;61017;37.812;-122.286;2022-09-12T01:47:31;25.60;71.00
72883;DHT22;61017;37.812;-122.286;2022-09-12T01:49:45;25.60;71.10
72883;DHT22;61017;37.812;-122.286;2022-09-12T01:51:20;25.60;71.50
72883;DHT22;61017;37.812;-122.286;2022-09-12T01:53:13;25.60;71.60
72883;DHT22;61017;37.812;-122.286;2022-09-12T01:54:54;25.60;71.80
72883;DHT22;61017;37.812;-122.286;2022-09-12T01:56:30;25.60;72.00
72883;DHT22;61017;37.812;-122.286;2022-09-12T01:58:14;25.60;72.20
72883;DHT22;61017;37.812;-122.286;2022-09-12T01:59:51;25.60;72.20
72883;DHT22;61017;37.812;-122.286;2022-09-12T02:01:30;25.60;72.50
72883;DHT22;61017;37.812;-122.286;2022-09-12T02:03:11;25.60;72.60
72883;DHT22;61017;37.812;-122.286;2022-09-12T02:04:59;25.60;73.40
72883;DHT22;61017;37.812;-122.286;2022-09-12T02:06:40;25.60;72.70
72883;DHT22;61017;37.812;-122.286;2022-09-12T02:08:25;25.60;72.80
72883;DHT22;61017;37.812;-122.286;2022-09-12T02:10:13;25.60;72.80
72883;DHT22;61017;37.812;-122.286;2022-09-12T02:11:47;25.60;72.70
72883;DHT22;61017;37.812;-122.286;2022-09-12T02:13:31;25.60;72.70
72883;DHT22;61017;37.812;-122.286;2022-09-12T02:15:08;25.60;72.80
72883;DHT22;61017;37.812;-122.286;2022-09-12T02:17:04;25.60;72.90
72883;DHT22;61017;37.812;-122.286;2022-09-12T02:18:40;25.60;73.10
72883;DHT22;61017;37.812;-122.286;2022-09-12T02:20:20;25.60;73.20
72883;DHT22;61017;37.812;-122.286;2022-09-12T02:21:55;25.60;73.20
72883;DHT22;61017;37.812;-122.286;2022-09-12T02:23:30;25.60;73.20
72883;DHT22;61017;37.812;-122.286;2022-09-12T02:25:05;25.60;73.10
72883;DHT22;61017;37.812;-122.286;2022-09-12T02:26:46;25.60;73.20
72883;DHT22;61017;37.812;-122.286;2022-09-12T02:28:24;25.60;73.20
72883;DHT22;61017;37.812;-122.286;2022-09-12T02:29:58;25.60;73.40
72883;DHT22;61017;37.812;-122.286;2022-09-12T02:31:48;25.60;73.40
72883;DHT22;61017;37.812;-122.286;2022-09-12T02:37:06;25.60;73.50
72883;DHT22;61017;37.812;-122.286;2022-09-12T02:38:46;25.60;73.40
72883;DHT22;61017;37.812;-122.286;2022-09-12T02:40:18;25.60;73.50
72883;DHT22;61017;37.812;-122.286;2022-09-12T02:41:51;25.60;73.50
72883;DHT22;61017;37.812;-122.286;2022-09-12T02:43:23;25.60;73.60
72883;DHT22;61017;37.812;-122.286;2022-09-12T02:44:55;25.60;73.60
72883;DHT22;61017;37.812;-122.286;2022-09-12T02:46:40;25.60;73.80
72883;DHT22;61017;37.812;-122.286;2022-09-12T02:48:41;25.60;73.80
72883;DHT22;61017;37.812;-122.286;2022-09-12T02:50:14;25.60;73.80
72883;DHT22;61017;37.812;-122.286;2022-09-12T02:51:55;25.60;73.80
72883;DHT22;61017;37.812;-122.286;2022-09-12T02:53:27;25.60;73.90
72883;DHT22;61017;37.812;-122.286;2022-09-12T02:54:59;25.60;74.00
72883;DHT22;61017;37.812;-122.286;2022-09-12T02:56:31;25.50;73.90
72883;DHT22;61017;37.812;-122.286;2022-09-12T02:58:07;25.60;74.20
72883;DHT22;61017;37.812;-122.286;2022-09-12T02:59:41;25.60;74.30
72883;DHT22;61017;37.812;-122.286;2022-09-12T03:01:33;25.60;74.20
72883;DHT22;61017;37.812;-122.286;2022-09-12T03:03:37;25.60;74.30
72883;DHT22;61017;37.812;-122.286;2022-09-12T03:05:20;25.50;74.50
72883;DHT22;61017;37.812;-122.286;2022-09-12T03:10:50;25.60;74.70
72883;DHT22;61017;37.812;-122.286;2022-09-12T03:16:14;25.60;75.10
72883;DHT22;61017;37.812;-122.286;2022-09-12T03:22:08;25.60;75.40
72883;DHT22;61017;37.812;-122.286;2022-09-12T03:26:02;25.50;75.40
72883;DHT22;61017;37.812;-122.286;2022-09-12T03:29:48;25.50;75.50
72883;DHT22;61017;37.812;-122.286;2022-09-12T03:31:20;25.50;75.40
72883;DHT22;61017;37.812;-122.286;2022-09-12T03:33:03;25.50;75.50
72883;DHT22;61017;37.812;-122.286;2022-09-12T03:34:35;25.50;75.50
72883;DHT22;61017;37.812;-122.286;2022-09-12T03:36:21;25.50;75.70
72883;DHT22;61017;37.812;-122.286;2022-09-12T03:39:42;25.50;75.50
72883;DHT22;61017;37.812;-122.286;2022-09-12T03:41:14;25.50;75.80
72883;DHT22;61017;37.812;-122.286;2022-09-12T03:42:46;25.50;75.60
72883;DHT22;61017;37.812;-122.286;2022-09-12T03:44:19;25.50;75.60
72883;DHT22;61017;37.812;-122.286;2022-09-12T03:45:50;25.50;75.80
72883;DHT22;61017;37.812;-122.286;2022-09-12T03:47:23;25.50;75.90
72883;DHT22;61017;37.812;-122.286;2022-09-12T03:48:55;25.50;75.90
72883;DHT22;61017;37.812;-122.286;2022-09-12T03:50:27;25.50;75.90
72883;DHT22;61017;37.812;-122.286;2022-09-12T03:51:59;25.50;76.00
72883;DHT22;61017;37.812;-122.286;2022-09-12T03:53:31;25.50;75.80
72883;DHT22;61017;37.812;-122.286;2022-09-12T03:55:03;25.50;75.90
72883;DHT22;61017;37.812;-122.286;2022-09-12T03:56:36;25.40;75.80
72883;DHT22;61017;37.812;-122.286;2022-09-12T03:58:08;25.50;75.90
72883;DHT22;61017;37.812;-122.286;2022-09-12T03:59:40;25.50;75.90
72883;DHT22;61017;37.812;-122.286;2022-09-12T04:01:17;25.50;75.90
72883;DHT22;61017;37.812;-122.286;2022-09-12T04:02:53;25.40;75.80
72883;DHT22;61017;37.812;-122.286;2022-09-12T04:04:26;25.50;75.90
72883;DHT22;61017;37.812;-122.286;2022-09-12T04:05:58;25.50;75.80
72883;DHT22;61017;37.812;-122.286;2022-09-12T04:07:30;25.50;75.90
72883;DHT22;61017;37.812;-122.286;2022-09-12T04:09:03;25.40;75.70
72883;DHT22;61017;37.812;-122.286;2022-09-12T04:10:35;25.50;75.80
72883;DHT22;61017;37.812;-122.286;2022-09-12T04:12:07;25.50;75.70
72883;DHT22;61017;37.812;-122.286;2022-09-12T04:13:41;25.50;75.70
72883;DHT22;61017;37.812;-122.286;2022-09-12T04:15:13;25.50;75.70
72883;DHT22;61017;37.812;-122.286;2022-09-12T04:16:45;25.40;75.60
72883;DHT22;61017;37.812;-122.286;2022-09-12T04:18:17;25.50;75.70
72883;DHT22;61017;37.812;-122.286;2022-09-12T04:19:49;25.50;76.00
72883;DHT22;61017;37.812;-122.286;2022-09-12T04:21:24;25.50;75.80
72883;DHT22;61017;37.812;-122.286;2022-09-12T04:22:56;25.50;75.50
72883;DHT22;61017;37.812;-122.286;2022-09-12T04:24:28;25.50;75.60
72883;DHT22;61017;37.812;-122.286;2022-09-12T04:26:01;25.50;75.50
72883;DHT22;61017;37.812;-122.286;2022-09-12T04:27:33;25.50;75.40
72883;DHT22;61017;37.812;-122.286;2022-09-12T04:29:05;25.50;75.40
72883;DHT22;61017;37.812;-122.286;2022-09-12T04:30:37;25.40;75.30
72883;DHT22;61017;37.812;-122.286;2022-09-12T04:32:09;25.50;75.30
72883;DHT22;61017;37.812;-122.286;2022-09-12T04:33:42;25.50;75.30
72883;DHT22;61017;37.812;-122.286;2022-09-12T04:35:14;25.50;75.30
72883;DHT22;61017;37.812;-122.286;2022-09-12T04:36:49;25.40;75.20
72883;DHT22;61017;37.812;-122.286;2022-09-12T04:38:21;25.40;75.30
72883;DHT22;61017;37.812;-122.286;2022-09-12T04:39:53;25.40;75.20
72883;DHT22;61017;37.812;-122.286;2022-09-12T04:41:32;25.40;75.20
72883;DHT22;61017;37.812;-122.286;2022-09-12T04:43:04;25.40;75.20
72883;DHT22;61017;37.812;-122.286;2022-09-12T04:44:40;25.40;75.20
72883;DHT22;61017;37.812;-122.286;2022-09-12T04:46:13;25.40;75.20
72883;DHT22;61017;37.812;-122.286;2022-09-12T04:47:46;25.40;75.20
72883;DHT22;61017;37.812;-122.286;2022-09-12T04:49:18;25.30;75.10
72883;DHT22;61017;37.812;-122.286;2022-09-12T04:51:26;25.30;75.10
72883;DHT22;61017;37.812;-122.286;2022-09-12T04:53:16;25.30;75.10
72883;DHT22;61017;37.812;-122.286;2022-09-12T04:55:09;25.30;75.00
72883;DHT22;61017;37.812;-122.286;2022-09-12T04:56:56;25.40;75.20
72883;DHT22;61017;37.812;-122.286;2022-09-12T04:58:30;25.40;75.20
72883;DHT22;61017;37.812;-122.286;2022-09-12T05:00:03;25.40;75.20
72883;DHT22;61017;37.812;-122.286;2022-09-12T05:01:37;25.30;75.10
72883;DHT22;61017;37.812;-122.286;2022-09-12T05:03:08;25.30;75.10
72883;DHT22;61017;37.812;-122.286;2022-09-12T05:04:40;25.30;75.10
72883;DHT22;61017;37.812;-122.286;2022-09-12T05:06:23;25.30;75.10
72883;DHT22;61017;37.812;-122.286;2022-09-12T05:07:55;25.30;75.10
72883;DHT22;61017;37.812;-122.286;2022-09-12T05:09:27;25.30;75.20
72883;DHT22;61017;37.812;-122.286;2022-09-12T05:11:07;25.30;75.20
72883;DHT22;61017;37.812;-122.286;2022-09-12T05:12:39;25.30;75.20
72883;DHT22;61017;37.812;-122.286;2022-09-12T05:14:11;25.30;75.10
72883;DHT22;61017;37.812;-122.286;2022-09-12T05:15:43;25.30;75.20
72883;DHT22;61017;37.812;-122.286;2022-09-12T05:17:15;25.30;75.20
72883;DHT22;61017;37.812;-122.286;2022-09-12T05:18:47;25.30;75.20
72883;DHT22;61017;37.812;-122.286;2022-09-12T05:20:20;25.30;75.20
72883;DHT22;61017;37.812;-122.286;2022-09-12T05:21:52;25.30;75.20
72883;DHT22;61017;37.812;-122.286;2022-09-12T05:23:24;25.30;75.20
72883;DHT22;61017;37.812;-122.286;2022-09-12T05:24:56;25.30;75.20
72883;DHT22;61017;37.812;-122.286;2022-09-12T05:26:28;25.30;75.20
72883;DHT22;61017;37.812;-122.286;2022-09-12T05:28:00;25.30;75.20
72883;DHT22;61017;37.812;-122.286;2022-09-12T05:29:32;25.30;75.20
72883;DHT22;61017;37.812;-122.286;2022-09-12T05:31:24;25.30;75.20
72883;DHT22;61017;37.812;-122.286;2022-09-12T05:32:56;25.20;75.20
72883;DHT22;61017;37.812;-122.286;2022-09-12T05:34:29;25.30;75.30
72883;DHT22;61017;37.812;-122.286;2022-09-12T05:36:02;25.30;75.30
72883;DHT22;61017;37.812;-122.286;2022-09-12T05:37:34;25.20;75.50
72883;DHT22;61017;37.812;-122.286;2022-09-12T05:39:06;25.20;75.30
72883;DHT22;61017;37.812;-122.286;2022-09-12T05:40:38;25.20;75.30
72883;DHT22;61017;37.812;-122.286;2022-09-12T05:42:09;25.20;75.40
72883;DHT22;61017;37.812;-122.286;2022-09-12T05:43:42;25.20;75.40
72883;DHT22;61017;37.812;-122.286;2022-09-12T05:45:15;25.20;75.40
72883;DHT22;61017;37.812;-122.286;2022-09-12T05:46:47;25.20;75.40
72883;DHT22;61017;37.812;-122.286;2022-09-12T05:48:23;25.20;75.40
72883;DHT22;61017;37.812;-122.286;2022-09-12T05:49:54;25.20;75.40
72883;DHT22;61017;37.812;-122.286;2022-09-12T05:51:30;25.20;75.40
72883;DHT22;61017;37.812;-122.286;2022-09-12T05:53:02;25.20;75.40
72883;DHT22;61017;37.812;-122.286;2022-09-12T05:54:34;25.10;75.30
72883;DHT22;61017;37.812;-122.286;2022-09-12T05:56:08;25.20;75.40
72883;DHT22;61017;37.812;-122.286;2022-09-12T05:57:43;25.20;75.40
72883;DHT22;61017;37.812;-122.286;2022-09-12T05:59:20;25.10;75.40
72883;DHT22;61017;37.812;-122.286;2022-09-12T06:00:52;25.10;75.50
72883;DHT22;61017;37.812;-122.286;2022-09-12T06:02:24;25.10;75.50
72883;DHT22;61017;37.812;-122.286;2022-09-12T06:03:58;25.10;75.50
72883;DHT22;61017;37.812;-122.286;2022-09-12T06:05:31;25.10;75.50
72883;DHT22;61017;37.812;-122.286;2022-09-12T06:07:03;25.10;75.60
72883;DHT22;61017;37.812;-122.286;2022-09-12T06:08:35;25.10;75.70
72883;DHT22;61017;37.812;-122.286;2022-09-12T06:10:07;25.10;75.50
72883;DHT22;61017;37.812;-122.286;2022-09-12T06:11:42;25.10;75.50
72883;DHT22;61017;37.812;-122.286;2022-09-12T06:13:15;25.00;75.50
72883;DHT22;61017;37.812;-122.286;2022-09-12T06:14:47;25.00;75.50
72883;DHT22;61017;37.812;-122.286;2022-09-12T06:16:24;25.00;75.60
72883;DHT22;61017;37.812;-122.286;2022-09-12T06:17:56;25.00;75.50
72883;DHT22;61017;37.812;-122.286;2022-09-12T06:19:28;25.00;75.50
72883;DHT22;61017;37.812;-122.286;2022-09-12T06:21:08;25.00;75.60
72883;DHT22;61017;37.812;-122.286;2022-09-12T06:22:40;25.00;75.50
72883;DHT22;61017;37.812;-122.286;2022-09-12T06:24:12;25.00;75.60
72883;DHT22;61017;37.812;-122.286;2022-09-12T06:25:48;25.00;75.60
72883;DHT22;61017;37.812;-122.286;2022-09-12T06:27:20;25.00;75.60
72883;DHT22;61017;37.812;-122.286;2022-09-12T06:28:54;25.00;75.60
72883;DHT22;61017;37.812;-122.286;2022-09-12T06:30:26;24.90;75.50
72883;DHT22;61017;37.812;-122.286;2022-09-12T06:31:58;25.00;75.70
72883;DHT22;61017;37.812;-122.286;2022-09-12T06:33:34;25.00;75.70
72883;DHT22;61017;37.812;-122.286;2022-09-12T06:35:06;25.00;75.80
72883;DHT22;61017;37.812;-122.286;2022-09-12T06:36:44;25.00;75.90
72883;DHT22;61017;37.812;-122.286;2022-09-12T06:38:16;25.00;75.90
72883;DHT22;61017;37.812;-122.286;2022-09-12T06:39:48;24.90;75.80
72883;DHT22;61017;37.812;-122.286;2022-09-12T06:41:21;24.40;76.00
72883;DHT22;61017;37.812;-122.286;2022-09-12T06:42:52;23.80;75.80
72883;DHT22;61017;37.812;-122.286;2022-09-12T06:44:24;23.50;75.60
72883;DHT22;61017;37.812;-122.286;2022-09-12T06:45:56;23.30;75.30
72883;DHT22;61017;37.812;-122.286;2022-09-12T06:47:28;23.10;74.90
72883;DHT22;61017;37.812;-122.286;2022-09-12T06:49:00;23.00;74.10
72883;DHT22;61017;37.812;-122.286;2022-09-12T06:50:32;22.90;73.40
72883;DHT22;61017;37.812;-122.286;2022-09-12T06:52:04;22.90;73.10
72883;DHT22;61017;37.812;-122.286;2022-09-12T06:53:37;22.80;72.30
72883;DHT22;61017;37.812;-122.286;2022-09-12T06:55:09;22.80;72.20
72883;DHT22;61017;37.812;-122.286;2022-09-12T06:56:42;22.90;76.50
72883;DHT22;61017;37.812;-122.286;2022-09-12T06:58:13;23.10;77.00
72883;DHT22;61017;37.812;-122.286;2022-09-12T06:59:45;23.30;77.00
72883;DHT22;61017;37.812;-122.286;2022-09-12T07:01:20;23.40;76.90
72883;DHT22;61017;37.812;-122.286;2022-09-12T07:02:55;23.40;76.10
72883;DHT22;61017;37.812;-122.286;2022-09-12T07:04:27;23.40;76.00
72883;DHT22;61017;37.812;-122.286;2022-09-12T07:06:07;23.40;76.00
72883;DHT22;61017;37.812;-122.286;2022-09-12T07:07:40;23.40;75.10
72883;DHT22;61017;37.812;-122.286;2022-09-12T07:09:13;23.40;75.00
72883;DHT22;61017;37.812;-122.286;2022-09-12T07:10:47;23.30;74.80
72883;DHT22;61017;37.812;-122.286;2022-09-12T07:12:19;23.30;75.00
72883;DHT22;61017;37.812;-122.286;2022-09-12T07:13:53;23.30;74.10
72883;DHT22;61017;37.812;-122.286;2022-09-12T07:15:25;23.30;74.70
72883;DHT22;61017;37.812;-122.286;2022-09-12T07:16:57;23.30;74.50
72883;DHT22;61017;37.812;-122.286;2022-09-12T07:18:29;23.30;74.20
72883;DHT22;61017;37.812;-122.286;2022-09-12T07:20:02;23.20;74.10
72883;DHT22;61017;37.812;-122.286;2022-09-12T07:21:34;23.20;74.40
72883;DHT22;61017;37.812;-122.286;2022-09-12T07:23:12;23.20;74.10
72883;DHT22;61017;37.812;-122.286;2022-09-12T07:24:44;23.20;74.00
72883;DHT22;61017;37.812;-122.286;2022-09-12T07:26:16;23.20;73.20
72883;DHT22;61017;37.812;-122.286;2022-09-12T07:27:48;22.90;71.80
72883;DHT22;61017;37.812;-122.286;2022-09-12T07:29:20;22.50;71.00
72883;DHT22;61017;37.812;-122.286;2022-09-12T07:30:52;22.30;70.20
72883;DHT22;61017;37.812;-122.286;2022-09-12T07:32:24;22.10;69.30
72883;DHT22;61017;37.812;-122.286;2022-09-12T07:33:56;21.80;68.20
72883;DHT22;61017;37.812;-122.286;2022-09-12T07:35:32;21.60;67.40
72883;DHT22;61017;37.812;-122.286;2022-09-12T07:37:04;21.50;66.60
72883;DHT22;61017;37.812;-122.286;2022-09-12T07:38:37;21.30;65.80
72883;DHT22;61017;37.812;-122.286;2022-09-12T07:40:09;21.20;65.10
72883;DHT22;61017;37.812;-122.286;2022-09-12T07:41:41;21.10;64.30
72883;DHT22;61017;37.812;-122.286;2022-09-12T07:43:13;21.00;63.20
72883;DHT22;61017;37.812;-122.286;2022-09-12T07:44:45;21.00;62.50
72883;DHT22;61017;37.812;-122.286;2022-09-12T07:46:16;21.00;61.80
72883;DHT22;61017;37.812;-122.286;2022-09-12T07:47:51;20.90;60.90
72883;DHT22;61017;37.812;-122.286;2022-09-12T07:49:26;20.80;60.20
72883;DHT22;61017;37.812;-122.286;2022-09-12T07:51:02;20.80;59.60
72883;DHT22;61017;37.812;-122.286;2022-09-12T07:52:35;20.70;59.10
72883;DHT22;61017;37.812;-122.286;2022-09-12T07:54:07;20.60;58.90
72883;DHT22;61017;37.812;-122.286;2022-09-12T07:55:39;20.50;58.60
72883;DHT22;61017;37.812;-122.286;2022-09-12T07:57:11;20.50;58.20
72883;DHT22;61017;37.812;-122.286;2022-09-12T07:58:44;20.40;57.80
72883;DHT22;61017;37.812;-122.286;2022-09-12T08:00:16;20.40;57.60
72883;DHT22;61017;37.812;-122.286;2022-09-12T08:01:48;20.30;57.30
72883;DHT22;61017;37.812;-122.286;2022-09-12T08:03:20;20.30;58.10
72883;DHT22;61017;37.812;-122.286;2022-09-12T08:04:52;20.40;58.30
72883;DHT22;61017;37.812;-122.286;2022-09-12T08:06:25;20.20;58.00
72883;DHT22;61017;37.812;-122.286;2022-09-12T08:07:57;20.20;58.00
72883;DHT22;61017;37.812;-122.286;2022-09-12T08:09:29;20.20;57.80
72883;DHT22;61017;37.812;-122.286;2022-09-12T08:11:03;20.10;57.60
72883;DHT22;61017;37.812;-122.286;2022-09-12T08:12:36;20.10;57.30
72883;DHT22;61017;37.812;-122.286;2022-09-12T08:14:08;20.00;57.30
72883;DHT22;61017;37.812;-122.286;2022-09-12T08:15:40;19.80;57.30
72883;DHT22;61017;37.812;-122.286;2022-09-12T08:17:11;19.80;57.40
72883;DHT22;61017;37.812;-122.286;2022-09-12T08:18:44;19.80;57.30
72883;DHT22;61017;37.812;-122.286;2022-09-12T08:20:16;19.80;57.10
72883;DHT22;61017;37.812;-122.286;2022-09-12T08:21:50;19.70;57.00
72883;DHT22;61017;37.812;-122.286;2022-09-12T08:23:22;19.60;56.90
72883;DHT22;61017;37.812;-122.286;2022-09-12T08:24:55;19.60;57.10
72883;DHT22;61017;37.812;-122.286;2022-09-12T08:26:27;19.60;58.40
72883;DHT22;61017;37.812;-122.286;2022-09-12T08:28:00;19.90;58.60
72883;DHT22;61017;37.812;-122.286;2022-09-12T08:29:32;20.40;58.60
72883;DHT22;61017;37.812;-122.286;2022-09-12T08:31:07;20.80;58.40
72883;DHT22;61017;37.812;-122.286;2022-09-12T08:32:39;21.30;58.40
72883;DHT22;61017;37.812;-122.286;2022-09-12T08:34:11;21.50;58.40
72883;DHT22;61017;37.812;-122.286;2022-09-12T08:35:43;21.70;58.60
72883;DHT22;61017;37.812;-122.286;2022-09-12T08:37:15;21.90;58.80
72883;DHT22;61017;37.812;-122.286;2022-09-12T08:38:49;22.00;59.20
72883;DHT22;61017;37.812;-122.286;2022-09-12T08:40:21;22.10;59.60
72883;DHT22;61017;37.812;-122.286;2022-09-12T08:42:04;22.20;60.00
72883;DHT22;61017;37.812;-122.286;2022-09-12T08:45:32;22.30;61.20
72883;DHT22;61017;37.812;-122.286;2022-09-12T08:47:30;22.40;61.70
72883;DHT22;61017;37.812;-122.286;2022-09-12T08:49:03;22.40;62.20
72883;DHT22;61017;37.812;-122.286;2022-09-12T08:50:36;22.40;62.70
72883;DHT22;61017;37.812;-122.286;2022-09-12T08:52:16;22.50;63.20
72883;DHT22;61017;37.812;-122.286;2022-09-12T08:53:51;22.50;64.00
72883;DHT22;61017;37.812;-122.286;2022-09-12T08:55:44;22.50;64.30
72883;DHT22;61017;37.812;-122.286;2022-09-12T08:57:17;22.60;65.90
72883;DHT22;61017;37.812;-122.286;2022-09-12T08:58:49;22.60;65.40
72883;DHT22;61017;37.812;-122.286;2022-09-12T09:00:21;22.70;66.00
72883;DHT22;61017;37.812;-122.286;2022-09-12T09:01:55;22.60;66.40
72883;DHT22;61017;37.812;-122.286;2022-09-12T09:03:46;22.70;66.80
72883;DHT22;61017;37.812;-122.286;2022-09-12T09:05:40;22.70;67.20
72883;DHT22;61017;37.812;-122.286;2022-09-12T09:07:32;22.80;67.80
72883;DHT22;61017;37.812;-122.286;2022-09-12T09:13:17;22.80;68.90
72883;DHT22;61017;37.812;-122.286;2022-09-12T09:15:22;22.80;69.60
72883;DHT22;61017;37.812;-122.286;2022-09-12T09:16:57;22.80;70.00
72883;DHT22;61017;37.812;-122.286;2022-09-12T09:18:34;22.90;70.30
72883;DHT22;61017;37.812;-122.286;2022-09-12T09:22:13;22.90;70.90
72883;DHT22;61017;37.812;-122.286;2022-09-12T09:23:52;22.90;71.40
72883;DHT22;61017;37.812;-122.286;2022-09-12T09:25:42;22.90;71.60
72883;DHT22;61017;37.812;-122.286;2022-09-12T09:27:40;23.00;72.00
72883;DHT22;61017;37.812;-122.286;2022-09-12T09:29:17;22.90;72.20
72883;DHT22;61017;37.812;-122.286;2022-09-12T09:30:50;23.00;72.70
72883;DHT22;61017;37.812;-122.286;2022-09-12T09:32:25;23.00;72.90
72883;DHT22;61017;37.812;-122.286;2022-09-12T09:33:57;23.00;73.40
72883;DHT22;61017;37.812;-122.286;2022-09-12T09:35:44;23.00;73.30
72883;DHT22;61017;37.812;-122.286;2022-09-12T09:40:51;23.00;74.00
72883;DHT22;61017;37.812;-122.286;2022-09-12T09:44:09;23.10;74.80
72883;DHT22;61017;37.812;-122.286;2022-09-12T09:45:41;23.00;75.30
72883;DHT22;61017;37.812;-122.286;2022-09-12T09:47:14;23.00;75.20
72883;DHT22;61017;37.812;-122.286;2022-09-12T09:48:49;23.00;75.60
72883;DHT22;61017;37.812;-122.286;2022-09-12T09:50:21;23.10;77.00
72883;DHT22;61017;37.812;-122.286;2022-09-12T09:51:54;23.10;76.40
72883;DHT22;61017;37.812;-122.286;2022-09-12T09:55:00;23.10;76.60
72883;DHT22;61017;37.812;-122.286;2022-09-12T09:56:36;23.10;76.80
72883;DHT22;61017;37.812;-122.286;2022-09-12T09:58:10;23.10;77.00
72883;DHT22;61017;37.812;-122.286;2022-09-12T09:59:42;23.10;77.20
72883;DHT22;61017;37.812;-122.286;2022-09-12T10:01:15;23.10;77.40
72883;DHT22;61017;37.812;-122.286;2022-09-12T10:04:41;23.20;77.90
72883;DHT22;61017;37.812;-122.286;2022-09-12T10:06:28;23.20;78.00
72883;DHT22;61017;37.812;-122.286;2022-09-12T10:08:03;23.20;78.10
72883;DHT22;61017;37.812;-122.286;2022-09-12T10:09:37;23.20;78.20
72883;DHT22;61017;37.812;-122.286;2022-09-12T10:12:47;23.20;78.70
72883;DHT22;61017;37.812;-122.286;2022-09-12T10:14:39;23.20;78.90
72883;DHT22;61017;37.812;-122.286;2022-09-12T10:16:23;23.20;79.00
72883;DHT22;61017;37.812;-122.286;2022-09-12T10:17:55;23.20;79.10
72883;DHT22;61017;37.812;-122.286;2022-09-12T10:19:37;23.20;79.20
72883;DHT22;61017;37.812;-122.286;2022-09-12T10:21:27;23.20;79.40
72883;DHT22;61017;37.812;-122.286;2022-09-12T10:23:02;23.20;79.50
72883;DHT22;61017;37.812;-122.286;2022-09-12T10:24:53;23.20;79.70
72883;DHT22;61017;37.812;-122.286;2022-09-12T10:26:31;23.20;79.80
72883;DHT22;61017;37.812;-122.286;2022-09-12T10:28:04;23.20;79.90
72883;DHT22;61017;37.812;-122.286;2022-09-12T10:30:00;23.30;80.10
72883;DHT22;61017;37.812;-122.286;2022-09-12T10:31:44;23.30;80.20